NCAR-RAP Real-Time Weather Data

Output produced by METARs form (24 January 2022  22:56 UTC)
found at http://weather.rap.ucar.edu/surface/
 
KBIS 242152Z 33007KT 10SM CLR M15/M21 A3014 RMK AO2 SLP244 T11501206
KBIS 242052Z 32007KT 10SM CLR M14/M19 A3013 RMK AO2 SLP237 T11391194 51004
KBIS 241952Z 36006KT 10SM FEW016 M14/M18 A3012 RMK AO2 SLP234 T11441183
KBIS 241852Z 34005KT 10SM CLR M14/M18 A3012 RMK AO2 SLP232 T11391183
KBIS 241824Z 35006KT 10SM SCT016 M14/M18 A3012 RMK AO2 T11441183
KBIS 241810Z 34007KT 10SM BKN015 BKN120 M14/M18 A3011 RMK AO2 T11391183
KBIS 241752Z 01008KT 10SM SCT015 OVC120 M15/M18 A3011 RMK AO2 SLP229 60000 T11501183 11117 21161 51020
KBIS 241652Z 35006KT 10SM OVC015 M15/M18 A3011 RMK AO2 SLP227 T11501183
KBIS 241620Z 02009KT 10SM OVC014 M16/M18 A3010 RMK AO2 T11561183
KBIS 241552Z VRB04KT 10SM OVC015 M16/M18 A3008 RMK AO2 SLP218 T11561183
KBIS 241501Z 03008KT 10SM BKN013 BKN018 M16/M19 A3006 RMK AO2 T11611189
KBIS 241452Z 02009KT 10SM SCT013 BKN018 M16/M19 A3005 RMK AO2 SLP206 60000 T11611189 51019
KBIS 241448Z 02008KT 10SM SCT018 M16/M19 A3005 RMK AO2
KBIS 241406Z 01011KT 10SM BKN017 BKN026 OVC036 M14/M18 A3002 RMK AO2 T11441178